• Join FlightAware (Why Join?)
  • Login
  • US Flag 
04:41AM EST


 

Airport Tracker/Info


-or-


 

Live Flight TrackerFlight Track Log ✈ CES5799 ✈ 13-Apr-2014 ✈ ZPPP / KMG - ZHLY / LYA

Flight Track Log - Related Links

Times and Time Zones

All times are in EDT time to prevent confusion due to time zone crossing. See the CES5799 flight status page for this flight to view local times or setup timezone preferences in your user account.

Time Position Orientation Groundspeed Altitude Reporting Facility
EDT Latitude Longitude Course Direction KTS MPH feet Rate Location/Type
09:49PM 30.6800 108.0926 38° Northeast  Level Estimated
09:50PM 30.7642 108.1764 41° Northeast  Level Estimated
09:51PM 30.8484 108.2604 41° Northeast  Level Estimated
09:52PM 30.9325 108.3445 41° Northeast  Level Estimated
09:53PM 31.0166 108.4287 41° Northeast  Level Estimated
09:54PM 31.1006 108.5132 41° Northeast  Level Estimated
09:55PM 31.1846 108.5977 41° Northeast  Level Estimated
09:56PM 31.2684 108.6824 41° Northeast  Level Estimated
09:57PM 31.3523 108.7673 41° Northeast  Level Estimated
09:58PM 31.4361 108.8523 41° Northeast  Level Estimated
09:59PM 31.5198 108.9375 41° Northeast  Level Estimated
10:00PM 31.6035 109.0228 41° Northeast  Level Estimated
10:01PM 31.6871 109.1083 41° Northeast  Level Estimated
10:02PM 31.7706 109.1939 41° Northeast  Level Estimated
10:03PM 31.8541 109.2797 41° Northeast  Level Estimated
10:04PM 31.9376 109.3656 41° Northeast  Level Estimated
10:05PM 32.0210 109.4517 41° Northeast  Level Estimated
10:06PM 32.1043 109.5380 41° Northeast  Level Estimated
10:07PM 32.1876 109.6244 41° Northeast  Level Estimated
10:08PM 32.2708 109.7109 41° Northeast  Level Estimated
10:09PM 32.3539 109.7977 41° Northeast  Level Estimated
10:10PM 32.4370 109.8846 41° Northeast  Level Estimated
10:11PM 32.5200 109.9716 41° Northeast  Level Estimated
10:12PM 32.6030 110.0588 42° Northeast  Level Estimated
10:13PM 32.6859 110.1462 42° Northeast  Level Estimated
10:14PM 32.7688 110.2337 42° Northeast  Level Estimated
10:15PM 32.8508 110.3206 42° Northeast  Level Estimated
10:16PM 32.9328 110.4077 42° Northeast  Level Estimated
10:17PM 33.0148 110.4950 42° Northeast  Level Estimated
10:18PM 33.0967 110.5824 42° Northeast  Level Estimated
10:19PM 33.1785 110.6700 42° Northeast  Level Estimated
10:20PM 33.2603 110.7577 42° Northeast  Level Estimated
10:21PM 33.3420 110.8456 42° Northeast  Level Estimated
10:22PM 33.4236 110.9337 42° Northeast  Level Estimated
10:23PM 33.5052 111.0219 42° Northeast  Level Estimated
10:24PM 33.5867 111.1103 42° Northeast  Level Estimated
10:25PM 33.6682 111.1989 42° Northeast  Level Estimated
10:26PM 33.7495 111.2876 42° Northeast  Level Estimated
10:27PM 33.8309 111.3765 42° Northeast  Level Estimated
10:28PM 33.9121 111.4656 42° Northeast  Level Estimated
10:29PM 33.9933 111.5548 42° Northeast  Level Estimated
10:30PM 34.0745 111.6443 42° Northeast  Level Estimated
10:31PM 34.1555 111.7338 42° Northeast  Level Estimated
10:32PM 34.2365 111.8236 42° Northeast  Level Estimated
10:33PM 34.3175 111.9135 43° Northeast  Level Estimated
10:34PM 34.3983 112.0036 43° Northeast  Level Estimated
10:35PM 34.4791 112.0939 43° Northeast  Level Estimated
10:36PM 34.5599 112.1844 43° Northeast  Level Estimated
10:37PM 34.6406 112.2750 43° Northeast  Level Estimated
10:38PM 34.7212 112.3658 43° Northeast  Level Estimated
10:39PM 34.7411 112.3883 43° Northeast  Level Estimated
10:40PM 34.7411 112.3883 North  Level Estimated
10:41PM 34.7411 112.3883 North  Level Estimated
10:42PM 34.7411 112.3883 North  Level Estimated
10:43PM 34.7411 112.3883 North  Level Estimated
10:44PM 34.7411 112.3883 North  Level Estimated
10:45PM 34.7411 112.3883 North  Level Estimated
10:46PM 34.7411 112.3883 North  Level Estimated
10:47PM 34.7411 112.3883 North  Level Estimated
10:48PM 34.7411 112.3883 North  Level Estimated
10:49PM 34.7411 112.3883 North  Level Estimated
10:50PM 34.7411 112.3883 North  Level Estimated
10:51PM 34.7411 112.3883 North  Level Estimated